Terminal Aerodrome Forecast
Issued by NWS Missoula, MT

Home | Current Version | Previous Version | Text Only | Print | Product List | Glossary On
Versions: 1 2 3 4 5 6 7 8 9 10 11 12
000
FTUS45 KMSO 191721
TAFBTM
TAF
KBTM 191721Z 1918/2018 VRB03KT P6SM BKN050 OVC070
     FM200100 VRB04KT P6SM VCSH BKN040
     FM200600 VRB03KT 5SM BR BKN050=

USA.gov is the U.S. government's official web portal to all federal, state and local government web resources and services.